createdAt,value
2017-12-20T00:01:20.352Z,21.60
2017-12-20T00:03:48.111Z,21.93
2017-12-20T00:06:15.738Z,17.67
2017-12-20T00:08:44.060Z,22.40
2017-12-20T00:11:12.737Z,18.10
2017-12-20T00:13:40.552Z,18.30
2017-12-20T00:16:08.274Z,18.90
2017-12-20T00:18:35.821Z,17.07
2017-12-20T00:21:03.409Z,17.27
2017-12-20T00:23:30.941Z,17.33
2017-12-20T00:25:58.701Z,21.03
2017-12-20T00:28:26.323Z,20.30
2017-12-20T00:30:53.907Z,18.60
2017-12-20T00:33:21.494Z,21.40
2017-12-20T00:35:50.020Z,15.90
2017-12-20T00:38:18.366Z,20.93
2017-12-20T00:40:46.208Z,16.37
2017-12-20T00:43:13.775Z,17.00
2017-12-20T00:45:41.321Z,14.83
2017-12-20T00:48:08.900Z,15.30
2017-12-20T00:50:36.458Z,12.83
2017-12-20T00:53:03.983Z,14.43
2017-12-20T00:55:31.547Z,16.50
2017-12-20T00:57:59.093Z,16.00
2017-12-20T01:00:26.681Z,18.93
2017-12-20T01:02:54.450Z,20.20
2017-12-20T01:05:22.063Z,16.40
2017-12-20T01:07:50.626Z,16.10
2017-12-20T01:10:18.457Z,17.30
2017-12-20T01:12:46.091Z,16.20
2017-12-20T01:15:13.901Z,15.37
2017-12-20T01:17:42.566Z,18.03
2017-12-20T01:20:10.588Z,15.80
2017-12-20T01:22:38.427Z,16.63
2017-12-20T01:25:06.982Z,16.02
2017-12-20T01:27:34.763Z,17.30
2017-12-20T01:30:02.340Z,17.10
2017-12-20T01:32:29.898Z,17.50
2017-12-20T01:34:57.628Z,17.73
2017-12-20T01:37:25.188Z,18.70
2017-12-20T01:39:53.770Z,16.87
2017-12-20T01:42:21.366Z,16.10
2017-12-20T01:44:48.917Z,24.23
2017-12-20T01:47:16.542Z,18.73
2017-12-20T01:49:44.071Z,20.17
2017-12-20T01:52:12.605Z,17.53
2017-12-20T01:54:40.140Z,18.60
2017-12-20T01:57:07.708Z,18.80
2017-12-20T01:59:35.276Z,19.67
2017-12-20T02:02:03.043Z,21.57
2017-12-20T02:04:30.783Z,19.53
2017-12-20T02:06:58.541Z,17.87
2017-12-20T02:09:26.337Z,16.93
2017-12-20T02:11:53.886Z,17.07
2017-12-20T02:14:21.455Z,16.80
2017-12-20T02:16:49.068Z,15.50
2017-12-20T02:19:16.773Z,16.87
2017-12-20T02:21:44.452Z,16.10
2017-12-20T02:24:12.064Z,18.13
2017-12-20T02:26:39.652Z,16.67
2017-12-20T02:29:07.728Z,17.67
2017-12-20T02:31:35.815Z,16.60
2017-12-20T02:34:03.709Z,16.13
2017-12-20T02:36:31.359Z,15.73
2017-12-20T02:39:09.142Z,17.73
2017-12-20T02:41:38.310Z,15.50
2017-12-20T02:44:06.071Z,15.77
2017-12-20T02:46:33.696Z,16.17
2017-12-20T02:49:02.043Z,14.80
2017-12-20T02:51:30.095Z,15.17
2017-12-20T02:53:58.961Z,15.07
2017-12-20T02:56:26.527Z,16.00
2017-12-20T02:58:54.203Z,16.50
2017-12-20T03:01:21.893Z,18.60
2017-12-20T03:03:49.494Z,16.80
2017-12-20T03:06:18.114Z,15.30
2017-12-20T03:08:45.871Z,16.70
2017-12-20T03:11:13.432Z,18.13
2017-12-20T03:13:41.103Z,35.73
2017-12-20T03:16:09.503Z,18.98
2017-12-20T03:18:37.179Z,16.70
2017-12-20T03:21:04.727Z,17.00
2017-12-20T03:23:32.451Z,17.73
2017-12-20T03:26:00.032Z,19.30
2017-12-20T03:28:27.564Z,17.33
2017-12-20T03:30:55.425Z,18.83
2017-12-20T03:33:23.104Z,22.37
2017-12-20T03:35:50.717Z,22.37
2017-12-20T03:38:18.275Z,21.77
2017-12-20T03:40:45.859Z,19.40
2017-12-20T03:43:14.147Z,21.80
2017-12-20T03:45:41.709Z,23.43
2017-12-20T03:48:09.236Z,22.53
2017-12-20T03:50:36.767Z,21.50
2017-12-20T03:53:06.255Z,21.77
2017-12-20T03:55:33.830Z,23.97
2017-12-20T03:58:01.564Z,21.57
2017-12-20T04:00:29.126Z,22.83
2017-12-20T04:02:57.405Z,25.30
2017-12-20T04:05:25.895Z,22.17
2017-12-20T04:07:55.334Z,20.00
2017-12-20T04:10:23.469Z,21.30
2017-12-20T04:12:51.725Z,21.20
2017-12-20T04:15:20.206Z,19.00
2017-12-20T04:17:48.849Z,17.50
2017-12-20T04:20:17.079Z,17.47
2017-12-20T04:22:45.649Z,16.97
2017-12-20T04:25:13.873Z,18.83
2017-12-20T04:27:44.072Z,16.07
2017-12-20T04:30:12.538Z,17.00
2017-12-20T04:32:43.066Z,18.77
2017-12-20T04:35:11.843Z,17.50
2017-12-20T04:37:40.049Z,16.43
2017-12-20T04:40:10.986Z,16.55
2017-12-20T04:42:39.436Z,17.67
2017-12-20T04:45:07.710Z,17.67
2017-12-20T04:47:35.454Z,22.83
2017-12-20T04:50:04.475Z,17.63
2017-12-20T04:52:33.747Z,17.70
2017-12-20T04:55:02.185Z,18.57
2017-12-20T04:57:31.855Z,16.97
2017-12-20T05:00:00.605Z,17.87
2017-12-20T05:02:29.651Z,17.50
2017-12-20T05:04:58.244Z,16.87
2017-12-20T05:07:26.625Z,15.97
2017-12-20T05:09:57.165Z,15.70
2017-12-20T05:12:24.712Z,16.50
2017-12-20T05:14:54.006Z,16.30
2017-12-20T05:17:21.855Z,17.17
2017-12-20T05:19:49.461Z,15.63
2017-12-20T05:22:17.863Z,15.47
2017-12-20T05:24:45.507Z,16.83
2017-12-20T05:27:13.824Z,18.80
2017-12-20T05:29:42.217Z,22.73
2017-12-20T05:32:10.382Z,21.20
2017-12-20T05:34:37.998Z,22.40
2017-12-20T05:37:06.167Z,17.93
2017-12-20T05:39:34.284Z,16.67
2017-12-20T05:42:03.462Z,15.93
2017-12-20T05:44:32.073Z,17.30
2017-12-20T05:47:00.851Z,17.23
2017-12-20T05:49:29.128Z,18.73
2017-12-20T05:51:59.047Z,17.57
2017-12-20T05:54:27.735Z,22.00
2017-12-20T05:56:56.412Z,18.20
2017-12-20T05:59:24.943Z,18.83
2017-12-20T06:01:52.533Z,18.07
2017-12-20T06:04:20.056Z,19.70
2017-12-20T06:06:47.619Z,21.23
2017-12-20T06:09:15.143Z,19.20
2017-12-20T06:11:43.702Z,18.23
2017-12-20T06:14:11.235Z,18.80
2017-12-20T06:16:38.763Z,18.90
2017-12-20T06:19:06.327Z,21.47
2017-12-20T06:21:33.851Z,22.67
2017-12-20T06:24:01.407Z,26.37
2017-12-20T06:26:28.932Z,31.60
2017-12-20T06:28:57.260Z,25.70
2017-12-20T06:31:24.777Z,19.43
2017-12-20T06:33:52.332Z,23.00
2017-12-20T06:36:19.857Z,23.20
2017-12-20T06:38:48.181Z,21.63
2017-12-20T06:41:15.712Z,24.53
2017-12-20T06:43:43.278Z,27.80
2017-12-20T06:46:11.582Z,25.83
2017-12-20T06:48:39.101Z,33.40
2017-12-20T06:51:06.663Z,31.97
2017-12-20T06:53:34.200Z,28.57
2017-12-20T06:56:01.793Z,26.90
2017-12-20T06:58:35.521Z,30.77
2017-12-20T07:01:10.428Z,32.47
2017-12-20T07:03:37.998Z,23.90
2017-12-20T07:06:07.523Z,21.40
2017-12-20T07:08:35.048Z,23.30
2017-12-20T07:11:04.333Z,19.93
2017-12-20T07:13:32.803Z,21.00
2017-12-20T07:16:00.409Z,21.37
2017-12-20T07:18:27.971Z,20.20
2017-12-20T07:20:55.533Z,19.30
2017-12-20T07:23:23.080Z,22.07
2017-12-20T07:25:50.646Z,21.83
2017-12-20T07:28:18.180Z,23.90
2017-12-20T07:30:45.775Z,23.30
2017-12-20T07:33:14.241Z,21.10
2017-12-20T07:35:42.764Z,22.23
2017-12-20T07:38:10.325Z,20.50
2017-12-20T07:40:37.856Z,24.90
2017-12-20T07:43:05.410Z,24.97
2017-12-20T07:45:32.942Z,19.80
2017-12-20T07:48:00.496Z,22.13
2017-12-20T07:50:28.031Z,19.50
2017-12-20T07:52:56.048Z,20.10
2017-12-20T07:55:24.659Z,29.33
2017-12-20T07:57:52.211Z,20.20
2017-12-20T08:00:19.757Z,37.03
2017-12-20T08:02:47.278Z,22.40
2017-12-20T08:05:14.846Z,19.40
2017-12-20T08:07:42.396Z,17.20
2017-12-20T08:10:10.198Z,16.53
2017-12-20T08:12:37.746Z,17.40
2017-12-20T08:15:05.300Z,14.30
2017-12-20T08:17:32.832Z,18.00
2017-12-20T08:20:01.168Z,27.33
2017-12-20T08:22:28.705Z,19.93
2017-12-20T08:24:56.277Z,18.10
2017-12-20T08:27:23.803Z,28.40
2017-12-20T08:29:52.343Z,42.77
2017-12-20T08:32:19.965Z,70.60
2017-12-20T08:34:47.563Z,22.43
2017-12-20T08:37:15.095Z,43.30
2017-12-20T08:39:42.625Z,42.23
2017-12-20T08:42:10.960Z,19.43
2017-12-20T08:44:38.488Z,39.10
2017-12-20T08:47:06.040Z,30.00
2017-12-20T08:49:33.563Z,26.37
2017-12-20T08:52:01.898Z,14.10
2017-12-20T08:54:29.430Z,109.40
2017-12-20T08:56:56.995Z,208.13
2017-12-20T08:59:24.527Z,59.90
2017-12-20T09:01:52.106Z,54.13
2017-12-20T09:04:19.640Z,15.20
2017-12-20T09:06:47.195Z,15.97
2017-12-20T09:09:14.843Z,13.40
2017-12-20T09:11:42.385Z,24.50
2017-12-20T09:14:09.947Z,13.60
2017-12-20T09:16:37.479Z,33.60
2017-12-20T09:19:06.995Z,23.83
2017-12-20T09:21:34.571Z,16.87
2017-12-20T09:24:02.239Z,20.50
2017-12-20T09:26:30.531Z,14.00
2017-12-20T09:28:58.083Z,14.00
2017-12-20T09:31:25.623Z,12.57
2017-12-20T09:33:53.172Z,13.50
2017-12-20T09:36:21.736Z,21.27
2017-12-20T09:38:49.299Z,19.10
2017-12-20T09:41:16.833Z,9.40
2017-12-20T09:43:44.398Z,9.03
2017-12-20T09:46:11.933Z,9.50
2017-12-20T09:48:39.464Z,12.30
2017-12-20T09:51:07.009Z,13.27
2017-12-20T09:53:34.558Z,8.50
2017-12-20T09:56:02.305Z,9.77
2017-12-20T09:58:29.828Z,10.20
2017-12-20T10:00:57.387Z,16.00
2017-12-20T10:03:25.692Z,53.33
2017-12-20T10:05:53.248Z,28.97
2017-12-20T10:08:20.794Z,11.17
2017-12-20T10:10:48.343Z,11.00
2017-12-20T10:13:15.907Z,10.20
2017-12-20T10:15:44.464Z,12.70
2017-12-20T10:18:11.995Z,9.93
2017-12-20T10:20:39.529Z,8.77
2017-12-20T10:23:07.299Z,16.87
2017-12-20T10:25:34.825Z,7.77
2017-12-20T10:28:02.406Z,59.07
2017-12-20T10:30:29.948Z,9.07
2017-12-20T10:32:57.495Z,8.37
2017-12-20T10:35:25.018Z,11.97
2017-12-20T10:37:52.569Z,11.70
2017-12-20T10:40:20.123Z,10.90
2017-12-20T10:42:47.679Z,8.80
2017-12-20T10:45:15.208Z,3.10
2017-12-20T10:47:42.779Z,4.63
2017-12-20T10:50:12.384Z,6.10
2017-12-20T10:52:39.898Z,7.20
2017-12-20T10:55:07.463Z,6.40
2017-12-20T10:57:34.987Z,5.00
2017-12-20T11:00:02.575Z,6.20
2017-12-20T11:02:30.127Z,4.57
2017-12-20T11:04:57.705Z,5.37
2017-12-20T11:07:26.022Z,6.90
2017-12-20T11:09:53.568Z,4.93
2017-12-20T11:12:21.094Z,5.87
2017-12-20T11:14:48.642Z,2.90
2017-12-20T11:17:16.174Z,3.70
2017-12-20T11:19:43.720Z,3.03
2017-12-20T11:22:11.244Z,3.77
2017-12-20T11:24:39.662Z,2.80
2017-12-20T11:27:08.177Z,9.27
2017-12-20T11:29:35.702Z,2.97
2017-12-20T11:32:03.819Z,3.70
2017-12-20T11:34:32.350Z,2.83
2017-12-20T11:36:59.914Z,3.47
2017-12-20T11:39:27.432Z,3.57
2017-12-20T11:41:55.751Z,2.53
2017-12-20T11:44:23.285Z,3.13
2017-12-20T11:46:50.869Z,3.00
2017-12-20T11:49:18.387Z,2.70
2017-12-20T11:51:45.939Z,2.20
2017-12-20T11:54:14.233Z,3.70
2017-12-20T11:56:41.758Z,2.57
2017-12-20T11:59:09.329Z,4.40
2017-12-20T12:01:37.619Z,2.90
2017-12-20T12:04:05.928Z,3.50
2017-12-20T12:06:33.463Z,3.40
2017-12-20T12:09:01.041Z,3.03
2017-12-20T12:11:28.563Z,3.43
2017-12-20T12:13:56.135Z,3.10
2017-12-20T12:16:23.687Z,3.80
2017-12-20T12:18:51.226Z,3.60
2017-12-20T12:21:18.765Z,9.60
2017-12-20T12:23:46.312Z,3.60
2017-12-20T12:26:14.827Z,4.40
2017-12-20T12:28:42.382Z,5.43
2017-12-20T12:31:09.982Z,4.10
2017-12-20T12:33:37.515Z,4.70
2017-12-20T12:36:05.148Z,12.73
2017-12-20T12:38:32.679Z,8.00
2017-12-20T12:41:00.239Z,8.80
2017-12-20T12:43:27.995Z,3.67
2017-12-20T12:45:55.757Z,3.60
2017-12-20T12:48:23.284Z,3.80
2017-12-20T12:50:50.851Z,5.97
2017-12-20T12:53:19.388Z,5.57
2017-12-20T12:55:46.935Z,6.80
2017-12-20T12:58:14.456Z,4.57
2017-12-20T13:00:42.008Z,4.63
2017-12-20T13:03:10.297Z,4.47
2017-12-20T13:05:37.821Z,9.13
2017-12-20T13:08:05.426Z,4.60
2017-12-20T13:10:32.954Z,4.23
2017-12-20T13:13:01.278Z,4.60
2017-12-20T13:15:28.819Z,5.00
2017-12-20T13:17:56.376Z,11.70
2017-12-20T13:20:23.909Z,24.10
2017-12-20T13:22:51.467Z,16.97
2017-12-20T13:25:19.836Z,4.47
2017-12-20T13:27:47.426Z,4.33
2017-12-20T13:30:14.942Z,4.27
2017-12-20T13:32:42.491Z,5.60
2017-12-20T13:35:11.023Z,4.03
2017-12-20T13:37:38.548Z,4.40
2017-12-20T13:40:06.102Z,3.90
2017-12-20T13:42:33.626Z,3.97
2017-12-20T13:45:01.203Z,5.43
2017-12-20T13:47:28.719Z,5.70
2017-12-20T13:49:56.280Z,5.83
2017-12-20T13:52:23.843Z,10.43
2017-12-20T13:54:51.392Z,4.27
2017-12-20T13:57:18.944Z,4.00
2017-12-20T13:59:48.487Z,5.40
2017-12-20T14:02:16.022Z,4.00
2017-12-20T14:04:43.575Z,3.83
2017-12-20T14:07:11.095Z,3.07
2017-12-20T14:09:40.330Z,3.57
2017-12-20T14:12:09.786Z,3.60
2017-12-20T14:14:37.295Z,3.70
2017-12-20T14:17:04.869Z,4.10
2017-12-20T14:19:32.430Z,3.73
2017-12-20T14:22:00.008Z,4.27
2017-12-20T14:24:27.531Z,4.20
2017-12-20T14:26:56.062Z,5.13
2017-12-20T14:29:24.343Z,4.03
2017-12-20T14:31:51.939Z,3.80
2017-12-20T14:34:19.459Z,3.13
2017-12-20T14:36:47.014Z,4.07
2017-12-20T14:39:14.532Z,3.70
2017-12-20T14:41:42.076Z,5.00
2017-12-20T14:44:09.618Z,4.27
2017-12-20T14:46:37.159Z,5.57
2017-12-20T14:49:04.706Z,6.20
2017-12-20T14:51:32.224Z,6.30
2017-12-20T14:54:01.743Z,5.40
2017-12-20T14:56:29.266Z,4.03
2017-12-20T14:58:58.958Z,4.87
2017-12-20T15:01:26.534Z,4.90
2017-12-20T15:03:54.102Z,6.43
2017-12-20T15:06:21.626Z,11.90
2017-12-20T15:08:49.192Z,4.63
2017-12-20T15:11:16.777Z,4.53
2017-12-20T15:13:44.324Z,5.70
2017-12-20T15:16:13.818Z,4.90
2017-12-20T15:18:41.389Z,5.23
2017-12-20T15:21:09.161Z,6.47
2017-12-20T15:23:36.688Z,5.43
2017-12-20T15:26:04.264Z,5.63
2017-12-20T15:28:32.577Z,4.80
2017-12-20T15:31:00.098Z,5.70
2017-12-20T15:33:28.423Z,9.10
2017-12-20T15:35:56.919Z,18.13
2017-12-20T15:38:24.476Z,10.00
2017-12-20T15:40:52.005Z,6.90
2017-12-20T15:43:19.587Z,7.10
2017-12-20T15:45:47.133Z,8.13
2017-12-20T15:48:14.684Z,7.73
2017-12-20T15:50:42.206Z,8.40
2017-12-20T15:53:10.518Z,5.93
2017-12-20T15:55:39.088Z,7.63
2017-12-20T15:58:07.634Z,7.53
2017-12-20T16:00:35.929Z,6.70
2017-12-20T16:03:03.470Z,18.40
2017-12-20T16:05:31.789Z,5.50
2017-12-20T16:07:59.323Z,5.03
2017-12-20T16:10:29.583Z,6.57
2017-12-20T16:12:57.159Z,6.37
2017-12-20T16:15:24.906Z,10.43
2017-12-20T16:17:52.461Z,16.00
2017-12-20T16:20:21.995Z,6.90
2017-12-20T16:22:49.527Z,7.27
2017-12-20T16:25:17.084Z,8.00
2017-12-20T16:27:44.635Z,8.60
2017-12-20T16:30:12.181Z,8.40
2017-12-20T16:32:39.704Z,8.83
2017-12-20T16:35:07.231Z,8.13
2017-12-20T16:37:34.779Z,8.07
2017-12-20T16:40:02.310Z,7.10
2017-12-20T16:42:30.620Z,7.50
2017-12-20T16:44:58.372Z,9.90
2017-12-20T16:47:25.930Z,9.33
2017-12-20T16:49:53.499Z,10.60
2017-12-20T16:52:22.059Z,14.13
2017-12-20T16:54:49.584Z,12.17
2017-12-20T16:57:17.926Z,15.83
2017-12-20T16:59:45.479Z,10.10
2017-12-20T17:02:13.022Z,10.50
2017-12-20T17:04:40.567Z,10.90
2017-12-20T17:07:08.099Z,14.57
2017-12-20T17:09:36.419Z,10.03
2017-12-20T17:12:04.001Z,10.07
2017-12-20T17:14:31.551Z,9.10
2017-12-20T17:16:59.079Z,9.40
2017-12-20T17:19:26.631Z,15.33
2017-12-20T17:21:54.928Z,19.10
2017-12-20T17:24:22.478Z,14.10
2017-12-20T17:26:50.002Z,11.87
2017-12-20T17:29:17.547Z,10.23
2017-12-20T17:31:45.118Z,18.63
2017-12-20T17:34:12.656Z,15.17
2017-12-20T17:36:40.393Z,23.60
2017-12-20T17:39:07.940Z,24.60
2017-12-20T17:41:35.496Z,32.63
2017-12-20T17:44:04.011Z,111.50
2017-12-20T17:46:31.574Z,65.97
2017-12-20T17:49:00.099Z,32.70
2017-12-20T17:51:28.413Z,57.90
2017-12-20T17:53:56.070Z,100.17
2017-12-20T17:56:23.639Z,38.92
2017-12-20T17:58:51.164Z,33.43
2017-12-20T18:01:18.732Z,13.50
2017-12-20T18:03:46.516Z,18.70
2017-12-20T18:06:15.019Z,11.73
2017-12-20T18:08:42.579Z,11.13
2017-12-20T18:11:10.124Z,11.67
2017-12-20T18:13:37.704Z,13.60
2017-12-20T18:16:05.237Z,10.27
2017-12-20T18:18:32.949Z,46.67
2017-12-20T18:21:00.651Z,111.33
2017-12-20T18:23:28.408Z,37.53
2017-12-20T18:25:56.408Z,25.67
2017-12-20T18:28:24.003Z,9.23
2017-12-20T18:30:52.902Z,11.63
2017-12-20T18:33:20.797Z,11.23
2017-12-20T18:35:49.285Z,7.80
2017-12-20T18:38:16.818Z,8.03
2017-12-20T18:40:46.406Z,10.73
2017-12-20T18:43:14.826Z,10.73
2017-12-20T18:45:42.374Z,14.13
2017-12-20T18:48:09.909Z,10.80
2017-12-20T18:50:38.252Z,21.60
2017-12-20T18:53:05.803Z,12.47
2017-12-20T18:55:33.360Z,18.43
2017-12-20T18:58:01.002Z,16.13
2017-12-20T19:00:28.581Z,16.20
2017-12-20T19:02:56.120Z,15.47
2017-12-20T19:05:27.366Z,14.67
2017-12-20T19:08:01.383Z,12.67
2017-12-20T19:13:10.522Z,11.80
2017-12-20T19:15:38.085Z,15.07
2017-12-20T19:18:06.589Z,16.87
2017-12-20T19:20:34.168Z,12.10
2017-12-20T19:23:01.695Z,11.97
2017-12-20T19:25:29.243Z,13.70
2017-12-20T19:27:56.979Z,13.43
2017-12-20T19:30:25.273Z,15.03
2017-12-20T19:32:54.796Z,16.17
2017-12-20T19:35:23.325Z,13.57
2017-12-20T19:37:50.873Z,12.93
2017-12-20T19:40:18.409Z,11.40
2017-12-20T19:42:45.960Z,18.27
2017-12-20T19:45:13.498Z,15.07
2017-12-20T19:47:41.038Z,11.37
2017-12-20T19:50:09.372Z,15.83
2017-12-20T19:52:36.895Z,13.27
2017-12-20T19:55:04.487Z,16.20
2017-12-20T19:57:32.036Z,17.80
2017-12-20T19:59:59.587Z,20.73
2017-12-20T20:02:27.114Z,22.97
2017-12-20T20:04:54.689Z,16.13
2017-12-20T20:07:23.774Z,17.13
2017-12-20T20:09:51.447Z,16.20
2017-12-20T20:12:19.953Z,13.33
2017-12-20T20:14:48.631Z,12.40
2017-12-20T20:17:16.154Z,13.80
2017-12-20T20:19:44.669Z,18.93
2017-12-20T20:22:12.228Z,21.30
2017-12-20T20:24:39.757Z,15.77
2017-12-20T20:27:07.532Z,16.67
2017-12-20T20:29:35.079Z,17.67
2017-12-20T20:32:02.635Z,11.67
2017-12-20T20:34:30.163Z,14.60
2017-12-20T20:36:57.713Z,14.53
2017-12-20T20:39:26.194Z,13.93
2017-12-20T20:41:53.727Z,19.77
2017-12-20T20:44:21.272Z,25.13
2017-12-20T20:46:48.794Z,26.53
2017-12-20T20:49:17.154Z,21.63
2017-12-20T20:51:44.696Z,19.00
2017-12-20T20:54:12.279Z,19.03
2017-12-20T20:56:40.575Z,17.03
2017-12-20T20:59:08.128Z,15.03
2017-12-20T21:01:35.654Z,11.70
2017-12-20T21:04:03.177Z,11.80
2017-12-20T21:06:31.674Z,11.73
2017-12-20T21:08:59.204Z,20.23
2017-12-20T21:11:26.762Z,15.73
2017-12-20T21:13:54.291Z,10.83
2017-12-20T21:16:22.607Z,13.37
2017-12-20T21:18:50.124Z,9.90
2017-12-20T21:21:18.442Z,9.17
2017-12-20T21:23:45.968Z,9.97
2017-12-20T21:26:14.287Z,11.00
2017-12-20T21:28:41.806Z,20.23
2017-12-20T21:31:09.341Z,9.80
2017-12-20T21:33:36.905Z,10.37
2017-12-20T21:36:05.228Z,15.17
2017-12-20T21:38:32.783Z,10.00
2017-12-20T21:41:00.310Z,9.80
2017-12-20T21:43:27.876Z,19.30
2017-12-20T21:45:56.197Z,15.10
2017-12-20T21:48:23.906Z,13.37
2017-12-20T21:50:51.440Z,12.00
2017-12-20T21:53:19.768Z,13.10
2017-12-20T21:55:47.339Z,15.93
2017-12-20T21:58:14.894Z,18.73
2017-12-20T22:00:42.434Z,17.37
2017-12-20T22:03:09.999Z,18.97
2017-12-20T22:05:37.554Z,15.77
2017-12-20T22:08:05.112Z,12.67
2017-12-20T22:10:33.426Z,34.23
2017-12-20T22:13:00.975Z,10.23
2017-12-20T22:15:28.542Z,15.73
2017-12-20T22:17:56.087Z,18.50
2017-12-20T22:20:23.669Z,15.47
2017-12-20T22:22:51.187Z,15.47
2017-12-20T22:25:18.757Z,13.93
2017-12-20T22:27:46.279Z,10.47
2017-12-20T22:30:13.809Z,12.40
2017-12-20T22:32:43.311Z,13.57
2017-12-20T22:35:10.852Z,12.27
2017-12-20T22:37:38.395Z,10.50
2017-12-20T22:40:07.866Z,10.97
2017-12-20T22:42:35.414Z,16.10
2017-12-20T22:45:03.744Z,15.40
2017-12-20T22:47:32.585Z,14.80
2017-12-20T22:50:00.415Z,12.63
2017-12-20T22:52:29.408Z,14.50
2017-12-20T22:54:57.010Z,10.37
2017-12-20T22:57:25.319Z,8.00
2017-12-20T22:59:53.898Z,18.63
2017-12-20T23:02:21.964Z,14.30
2017-12-20T23:04:50.986Z,12.30
2017-12-20T23:07:19.663Z,15.60
2017-12-20T23:09:47.626Z,11.43
2017-12-20T23:12:15.659Z,13.43
2017-12-20T23:14:44.374Z,10.20
2017-12-20T23:17:12.941Z,11.10
2017-12-20T23:19:42.432Z,11.80
2017-12-20T23:22:11.351Z,15.23
2017-12-20T23:24:39.023Z,22.90
2017-12-20T23:27:08.218Z,13.10
2017-12-20T23:29:36.697Z,9.10
2017-12-20T23:32:04.299Z,10.13
2017-12-20T23:34:31.831Z,8.93
2017-12-20T23:36:59.385Z,12.03
2017-12-20T23:39:26.906Z,11.20
2017-12-20T23:41:54.447Z,9.50
2017-12-20T23:44:21.970Z,8.73
2017-12-20T23:46:49.511Z,9.10
2017-12-20T23:49:17.037Z,14.50
2017-12-20T23:51:45.366Z,13.00
2017-12-20T23:54:12.884Z,12.03
2017-12-20T23:56:41.168Z,12.03
2017-12-20T23:59:08.746Z,11.40
